createdAt,value
2022-12-04T00:14:21.658Z,1.53
2022-12-04T00:29:23.578Z,1.49
2022-12-04T00:44:25.539Z,1.49
2022-12-04T00:59:27.479Z,1.49
2022-12-04T01:14:29.519Z,1.46
2022-12-04T01:29:31.439Z,1.46
2022-12-04T01:44:33.425Z,1.40
2022-12-04T02:00:06.099Z,1.42
2022-12-04T02:15:28.765Z,1.46
2022-12-04T02:30:32.521Z,1.40
2022-12-04T02:45:41.446Z,1.42
2022-12-04T03:00:45.595Z,1.42
2022-12-04T03:15:54.740Z,1.52
2022-12-04T03:31:03.873Z,1.50
2022-12-04T03:46:26.166Z,1.52
2022-12-04T04:01:36.824Z,1.47
2022-12-04T04:17:01.815Z,1.43
2022-12-04T04:32:20.376Z,1.49
2022-12-04T04:47:30.605Z,1.52
2022-12-04T05:02:33.933Z,1.52
2022-12-04T05:17:36.625Z,1.52
2022-12-04T05:32:38.796Z,1.52
2022-12-04T05:47:44.679Z,1.52
2022-12-04T06:02:46.660Z,1.50
2022-12-04T06:17:48.647Z,1.49
2022-12-04T06:32:50.556Z,1.47
2022-12-04T06:47:52.467Z,1.53
2022-12-04T07:02:54.415Z,1.54
2022-12-04T07:17:56.625Z,1.53
2022-12-04T07:32:58.516Z,1.54
2022-12-04T07:48:00.442Z,1.60
2022-12-04T08:03:02.312Z,1.64
2022-12-04T08:18:04.223Z,1.71
2022-12-04T08:33:06.143Z,1.70
2022-12-04T08:48:08.032Z,1.82
2022-12-04T09:03:14.145Z,1.87
2022-12-04T09:18:16.081Z,1.78
2022-12-04T09:33:17.934Z,1.81
2022-12-04T09:48:22.714Z,1.88
2022-12-04T10:03:28.643Z,2.21
2022-12-04T10:18:58.902Z,2.09
2022-12-04T10:34:12.847Z,2.13
2022-12-04T10:49:38.143Z,2.13
2022-12-04T11:04:42.227Z,2.23
2022-12-04T11:19:44.261Z,2.22
2022-12-04T11:34:46.623Z,2.23
2022-12-04T11:50:38.366Z,2.23
2022-12-04T12:05:43.491Z,2.25
2022-12-04T12:21:01.747Z,2.29
2022-12-04T12:36:12.025Z,2.30
2022-12-04T12:51:38.763Z,2.39
2022-12-04T13:06:43.466Z,2.40
2022-12-04T13:22:07.324Z,2.38
2022-12-04T13:37:09.285Z,2.33
2022-12-04T13:52:40.404Z,2.22
2022-12-04T14:07:55.839Z,2.22
2022-12-04T14:23:18.189Z,2.19
2022-12-04T14:38:23.181Z,2.12
2022-12-04T14:53:50.924Z,2.09
2022-12-04T15:09:18.525Z,2.08
2022-12-04T15:24:23.623Z,2.02
2022-12-04T15:39:30.863Z,2.09
2022-12-04T15:54:33.685Z,1.98
2022-12-04T16:09:35.622Z,1.97
2022-12-04T16:24:40.006Z,1.88
2022-12-04T16:39:42.019Z,1.90
2022-12-04T16:54:43.998Z,1.91
2022-12-04T17:09:46.219Z,1.85
2022-12-04T17:24:54.307Z,1.82
2022-12-04T17:39:57.840Z,1.75
2022-12-04T17:55:00.242Z,1.74
2022-12-04T18:10:02.214Z,1.71
2022-12-04T18:25:04.266Z,1.67
2022-12-04T18:40:07.578Z,1.57
2022-12-04T18:55:10.018Z,1.59
2022-12-04T19:10:12.145Z,1.59
2022-12-04T19:25:14.122Z,1.61
2022-12-04T19:40:16.124Z,1.56
2022-12-04T19:55:18.185Z,1.59
2022-12-04T20:10:21.264Z,1.61
2022-12-04T20:25:23.445Z,1.64
2022-12-04T20:40:25.444Z,1.63
2022-12-04T20:55:27.445Z,1.67
2022-12-04T21:10:29.454Z,1.63
2022-12-04T21:25:31.386Z,1.64
2022-12-04T21:40:39.014Z,1.66
2022-12-04T21:55:56.165Z,1.64
2022-12-04T22:10:58.186Z,1.71
2022-12-04T22:26:11.465Z,1.63
2022-12-04T22:41:15.706Z,1.64
2022-12-04T22:56:17.625Z,1.67
2022-12-04T23:11:21.637Z,1.66
2022-12-04T23:26:35.594Z,1.66
2022-12-04T23:41:37.517Z,1.54
2022-12-04T23:56:39.440Z,1.46
